sensor_id;sensor_type;location;lat;lon;timestamp;temperature;humidity
15364;DHT22;7781;49.690;6.472;2022-10-22T00:00:59;13.20;99.90
15364;DHT22;7781;49.690;6.472;2022-10-22T00:03:27;13.20;99.90
15364;DHT22;7781;49.690;6.472;2022-10-22T00:05:55;13.10;99.90
15364;DHT22;7781;49.690;6.472;2022-10-22T00:08:23;13.10;99.90
15364;DHT22;7781;49.690;6.472;2022-10-22T00:10:51;13.10;99.90
15364;DHT22;7781;49.690;6.472;2022-10-22T00:13:19;13.20;99.90
15364;DHT22;7781;49.690;6.472;2022-10-22T00:15:49;13.20;99.90
15364;DHT22;7781;49.690;6.472;2022-10-22T00:18:17;13.30;99.90
15364;DHT22;7781;49.690;6.472;2022-10-22T00:20:45;13.30;99.90
15364;DHT22;7781;49.690;6.472;2022-10-22T00:23:13;13.30;99.90
15364;DHT22;7781;49.690;6.472;2022-10-22T00:25:41;13.20;99.90
15364;DHT22;7781;49.690;6.472;2022-10-22T00:28:09;13.20;99.90
15364;DHT22;7781;49.690;6.472;2022-10-22T00:30:38;13.30;99.90
15364;DHT22;7781;49.690;6.472;2022-10-22T00:33:07;13.30;99.90
15364;DHT22;7781;49.690;6.472;2022-10-22T00:35:35;13.30;99.90
15364;DHT22;7781;49.690;6.472;2022-10-22T00:38:03;13.30;99.90
15364;DHT22;7781;49.690;6.472;2022-10-22T00:40:31;13.30;99.90
15364;DHT22;7781;49.690;6.472;2022-10-22T00:42:59;13.30;99.90
15364;DHT22;7781;49.690;6.472;2022-10-22T00:45:27;13.40;99.90
15364;DHT22;7781;49.690;6.472;2022-10-22T00:48:00;13.50;99.90
15364;DHT22;7781;49.690;6.472;2022-10-22T00:50:32;13.50;99.90
15364;DHT22;7781;49.690;6.472;2022-10-22T00:53:02;13.60;99.90
15364;DHT22;7781;49.690;6.472;2022-10-22T00:55:32;13.50;99.90
15364;DHT22;7781;49.690;6.472;2022-10-22T00:58:00;13.60;99.90
15364;DHT22;7781;49.690;6.472;2022-10-22T01:00:29;13.60;99.90
15364;DHT22;7781;49.690;6.472;2022-10-22T01:02:57;13.60;99.90
15364;DHT22;7781;49.690;6.472;2022-10-22T01:05:27;13.60;99.90
15364;DHT22;7781;49.690;6.472;2022-10-22T01:07:57;13.50;99.90
15364;DHT22;7781;49.690;6.472;2022-10-22T01:10:51;13.50;99.90
15364;DHT22;7781;49.690;6.472;2022-10-22T01:13:28;13.50;99.90
15364;DHT22;7781;49.690;6.472;2022-10-22T01:16:02;13.50;99.90
15364;DHT22;7781;49.690;6.472;2022-10-22T01:18:37;13.50;99.90
15364;DHT22;7781;49.690;6.472;2022-10-22T01:21:14;13.50;99.90
15364;DHT22;7781;49.690;6.472;2022-10-22T01:24:17;13.50;99.90
15364;DHT22;7781;49.690;6.472;2022-10-22T01:26:59;13.50;99.90
15364;DHT22;7781;49.690;6.472;2022-10-22T01:29:33;13.40;99.90
15364;DHT22;7781;49.690;6.472;2022-10-22T01:32:07;13.40;99.90
15364;DHT22;7781;49.690;6.472;2022-10-22T01:34:37;13.40;99.90
15364;DHT22;7781;49.690;6.472;2022-10-22T01:37:09;13.40;99.90
15364;DHT22;7781;49.690;6.472;2022-10-22T01:39:39;13.40;99.90
15364;DHT22;7781;49.690;6.472;2022-10-22T01:42:11;13.40;99.90
15364;DHT22;7781;49.690;6.472;2022-10-22T01:44:40;13.30;99.90
15364;DHT22;7781;49.690;6.472;2022-10-22T01:47:16;13.40;99.90
15364;DHT22;7781;49.690;6.472;2022-10-22T01:49:56;13.40;99.90
15364;DHT22;7781;49.690;6.472;2022-10-22T01:52:37;13.30;99.90
15364;DHT22;7781;49.690;6.472;2022-10-22T01:55:14;13.30;99.90
15364;DHT22;7781;49.690;6.472;2022-10-22T01:57:52;13.20;99.90
15364;DHT22;7781;49.690;6.472;2022-10-22T02:00:25;13.20;99.90
15364;DHT22;7781;49.690;6.472;2022-10-22T02:02:59;13.20;99.90
15364;DHT22;7781;49.690;6.472;2022-10-22T02:05:32;13.20;99.90
15364;DHT22;7781;49.690;6.472;2022-10-22T02:08:07;13.10;99.90
15364;DHT22;7781;49.690;6.472;2022-10-22T02:10:37;13.00;99.90
15364;DHT22;7781;49.690;6.472;2022-10-22T02:13:08;13.00;99.90
15364;DHT22;7781;49.690;6.472;2022-10-22T02:15:41;12.90;99.90
15364;DHT22;7781;49.690;6.472;2022-10-22T02:18:12;12.80;99.90
15364;DHT22;7781;49.690;6.472;2022-10-22T02:20:41;12.80;99.90
15364;DHT22;7781;49.690;6.472;2022-10-22T02:23:10;12.90;99.90
15364;DHT22;7781;49.690;6.472;2022-10-22T02:25:40;12.70;99.90
15364;DHT22;7781;49.690;6.472;2022-10-22T02:28:14;12.70;99.90
15364;DHT22;7781;49.690;6.472;2022-10-22T02:30:47;12.70;99.90
15364;DHT22;7781;49.690;6.472;2022-10-22T02:33:20;12.50;99.90
15364;DHT22;7781;49.690;6.472;2022-10-22T02:35:51;12.40;99.90
15364;DHT22;7781;49.690;6.472;2022-10-22T02:38:21;12.40;99.90
15364;DHT22;7781;49.690;6.472;2022-10-22T02:40:50;12.40;99.90
15364;DHT22;7781;49.690;6.472;2022-10-22T02:43:18;12.40;99.90
15364;DHT22;7781;49.690;6.472;2022-10-22T02:45:48;12.40;99.90
15364;DHT22;7781;49.690;6.472;2022-10-22T02:48:16;12.40;99.90
15364;DHT22;7781;49.690;6.472;2022-10-22T02:50:44;12.50;99.90
15364;DHT22;7781;49.690;6.472;2022-10-22T02:53:12;12.50;99.90
15364;DHT22;7781;49.690;6.472;2022-10-22T02:55:40;12.50;99.90
15364;DHT22;7781;49.690;6.472;2022-10-22T02:58:08;12.50;99.90
15364;DHT22;7781;49.690;6.472;2022-10-22T03:00:36;12.40;99.90
15364;DHT22;7781;49.690;6.472;2022-10-22T03:03:06;12.40;99.90
15364;DHT22;7781;49.690;6.472;2022-10-22T03:05:34;12.40;99.90
15364;DHT22;7781;49.690;6.472;2022-10-22T03:08:02;12.40;99.90
15364;DHT22;7781;49.690;6.472;2022-10-22T03:10:30;12.40;99.90
15364;DHT22;7781;49.690;6.472;2022-10-22T03:12:58;12.40;99.90
15364;DHT22;7781;49.690;6.472;2022-10-22T03:15:26;12.30;99.90
15364;DHT22;7781;49.690;6.472;2022-10-22T03:17:59;12.40;99.90
15364;DHT22;7781;49.690;6.472;2022-10-22T03:20:28;12.40;99.90
15364;DHT22;7781;49.690;6.472;2022-10-22T03:22:56;12.40;99.90
15364;DHT22;7781;49.690;6.472;2022-10-22T03:25:25;12.40;99.90
15364;DHT22;7781;49.690;6.472;2022-10-22T03:27:56;12.60;99.90
15364;DHT22;7781;49.690;6.472;2022-10-22T03:30:27;12.70;99.90
15364;DHT22;7781;49.690;6.472;2022-10-22T03:32:56;12.80;99.90
15364;DHT22;7781;49.690;6.472;2022-10-22T03:35:24;12.90;99.90
15364;DHT22;7781;49.690;6.472;2022-10-22T03:37:54;12.90;99.90
15364;DHT22;7781;49.690;6.472;2022-10-22T03:40:22;12.90;99.90
15364;DHT22;7781;49.690;6.472;2022-10-22T03:42:50;13.00;99.90
15364;DHT22;7781;49.690;6.472;2022-10-22T03:45:19;13.00;99.90
15364;DHT22;7781;49.690;6.472;2022-10-22T03:47:47;13.00;99.90
15364;DHT22;7781;49.690;6.472;2022-10-22T03:50:15;13.00;99.90
15364;DHT22;7781;49.690;6.472;2022-10-22T03:52:44;12.90;99.90
15364;DHT22;7781;49.690;6.472;2022-10-22T03:55:13;12.90;99.90
15364;DHT22;7781;49.690;6.472;2022-10-22T03:57:41;12.90;99.90
15364;DHT22;7781;49.690;6.472;2022-10-22T04:00:10;12.90;99.90
15364;DHT22;7781;49.690;6.472;2022-10-22T04:02:38;12.90;99.90
15364;DHT22;7781;49.690;6.472;2022-10-22T04:05:06;12.90;99.90
15364;DHT22;7781;49.690;6.472;2022-10-22T04:07:35;13.00;99.90
15364;DHT22;7781;49.690;6.472;2022-10-22T04:10:04;12.90;99.90
15364;DHT22;7781;49.690;6.472;2022-10-22T04:12:33;12.80;99.90
15364;DHT22;7781;49.690;6.472;2022-10-22T04:15:01;12.80;99.90
15364;DHT22;7781;49.690;6.472;2022-10-22T04:17:32;12.80;99.90
15364;DHT22;7781;49.690;6.472;2022-10-22T04:20:02;12.70;99.90
15364;DHT22;7781;49.690;6.472;2022-10-22T04:22:32;12.70;99.90
15364;DHT22;7781;49.690;6.472;2022-10-22T04:25:00;12.70;99.90
15364;DHT22;7781;49.690;6.472;2022-10-22T04:27:29;12.70;99.90
15364;DHT22;7781;49.690;6.472;2022-10-22T04:29:59;12.70;99.90
15364;DHT22;7781;49.690;6.472;2022-10-22T04:32:27;12.70;99.90
15364;DHT22;7781;49.690;6.472;2022-10-22T04:34:55;12.60;99.90
15364;DHT22;7781;49.690;6.472;2022-10-22T04:37:23;12.60;99.90
15364;DHT22;7781;49.690;6.472;2022-10-22T04:39:51;12.40;99.90
15364;DHT22;7781;49.690;6.472;2022-10-22T04:42:19;12.40;99.90
15364;DHT22;7781;49.690;6.472;2022-10-22T04:44:47;12.30;99.90
15364;DHT22;7781;49.690;6.472;2022-10-22T04:47:16;12.20;99.90
15364;DHT22;7781;49.690;6.472;2022-10-22T04:49:44;12.20;99.90
15364;DHT22;7781;49.690;6.472;2022-10-22T04:52:12;12.20;99.90
15364;DHT22;7781;49.690;6.472;2022-10-22T04:54:40;12.10;99.90
15364;DHT22;7781;49.690;6.472;2022-10-22T04:57:08;12.10;99.90
15364;DHT22;7781;49.690;6.472;2022-10-22T04:59:36;12.00;99.90
15364;DHT22;7781;49.690;6.472;2022-10-22T05:02:04;11.90;99.90
15364;DHT22;7781;49.690;6.472;2022-10-22T05:04:34;11.80;99.90
15364;DHT22;7781;49.690;6.472;2022-10-22T05:07:02;11.80;99.90
15364;DHT22;7781;49.690;6.472;2022-10-22T05:09:30;11.70;99.90
15364;DHT22;7781;49.690;6.472;2022-10-22T05:11:58;11.70;99.90
15364;DHT22;7781;49.690;6.472;2022-10-22T05:14:26;11.60;99.90
15364;DHT22;7781;49.690;6.472;2022-10-22T05:16:53;11.70;99.90
15364;DHT22;7781;49.690;6.472;2022-10-22T05:19:23;11.70;99.90
15364;DHT22;7781;49.690;6.472;2022-10-22T05:21:55;11.70;99.90
15364;DHT22;7781;49.690;6.472;2022-10-22T05:24:23;11.80;99.90
15364;DHT22;7781;49.690;6.472;2022-10-22T05:26:53;11.80;99.90
15364;DHT22;7781;49.690;6.472;2022-10-22T05:29:22;12.00;99.90
15364;DHT22;7781;49.690;6.472;2022-10-22T05:31:50;12.00;99.90
15364;DHT22;7781;49.690;6.472;2022-10-22T05:34:19;12.00;99.90
15364;DHT22;7781;49.690;6.472;2022-10-22T05:36:47;11.90;99.90
15364;DHT22;7781;49.690;6.472;2022-10-22T05:39:16;12.00;99.90
15364;DHT22;7781;49.690;6.472;2022-10-22T05:41:44;12.00;99.90
15364;DHT22;7781;49.690;6.472;2022-10-22T05:44:12;12.00;99.90
15364;DHT22;7781;49.690;6.472;2022-10-22T05:46:40;12.00;99.90
15364;DHT22;7781;49.690;6.472;2022-10-22T05:49:12;12.00;99.90
15364;DHT22;7781;49.690;6.472;2022-10-22T05:51:41;12.10;99.90
15364;DHT22;7781;49.690;6.472;2022-10-22T05:54:16;12.10;99.90
15364;DHT22;7781;49.690;6.472;2022-10-22T05:56:45;12.00;99.90
15364;DHT22;7781;49.690;6.472;2022-10-22T05:59:13;12.00;99.90
15364;DHT22;7781;49.690;6.472;2022-10-22T06:01:41;12.00;99.90
15364;DHT22;7781;49.690;6.472;2022-10-22T06:04:11;11.90;99.90
15364;DHT22;7781;49.690;6.472;2022-10-22T06:06:42;11.80;99.90
15364;DHT22;7781;49.690;6.472;2022-10-22T06:09:14;11.80;99.90
15364;DHT22;7781;49.690;6.472;2022-10-22T06:11:45;11.70;99.90
15364;DHT22;7781;49.690;6.472;2022-10-22T06:14:14;11.70;99.90
15364;DHT22;7781;49.690;6.472;2022-10-22T06:16:43;11.60;99.90
15364;DHT22;7781;49.690;6.472;2022-10-22T06:19:12;11.60;99.90
15364;DHT22;7781;49.690;6.472;2022-10-22T06:21:41;11.50;99.90
15364;DHT22;7781;49.690;6.472;2022-10-22T06:24:09;11.50;99.90
15364;DHT22;7781;49.690;6.472;2022-10-22T06:26:38;11.40;99.90
15364;DHT22;7781;49.690;6.472;2022-10-22T06:29:09;11.30;99.90
15364;DHT22;7781;49.690;6.472;2022-10-22T06:31:37;11.20;99.90
15364;DHT22;7781;49.690;6.472;2022-10-22T06:34:06;11.20;99.90
15364;DHT22;7781;49.690;6.472;2022-10-22T06:36:34;11.20;99.90
15364;DHT22;7781;49.690;6.472;2022-10-22T06:39:03;11.10;99.90
15364;DHT22;7781;49.690;6.472;2022-10-22T06:41:31;10.90;99.90
15364;DHT22;7781;49.690;6.472;2022-10-22T06:43:59;10.90;99.90
15364;DHT22;7781;49.690;6.472;2022-10-22T06:46:29;10.90;99.90
15364;DHT22;7781;49.690;6.472;2022-10-22T06:48:59;11.00;99.90
15364;DHT22;7781;49.690;6.472;2022-10-22T06:51:28;11.00;99.90
15364;DHT22;7781;49.690;6.472;2022-10-22T06:53:57;10.90;99.90
15364;DHT22;7781;49.690;6.472;2022-10-22T06:56:27;10.80;99.90
15364;DHT22;7781;49.690;6.472;2022-10-22T06:58:56;10.80;99.90
15364;DHT22;7781;49.690;6.472;2022-10-22T07:01:26;10.80;99.90
15364;DHT22;7781;49.690;6.472;2022-10-22T07:03:56;10.90;99.90
15364;DHT22;7781;49.690;6.472;2022-10-22T07:06:25;10.90;99.90
15364;DHT22;7781;49.690;6.472;2022-10-22T07:08:54;11.00;99.90
15364;DHT22;7781;49.690;6.472;2022-10-22T07:11:25;11.00;99.90
15364;DHT22;7781;49.690;6.472;2022-10-22T07:13:54;11.20;99.90
15364;DHT22;7781;49.690;6.472;2022-10-22T07:16:23;11.30;99.90
15364;DHT22;7781;49.690;6.472;2022-10-22T07:18:59;11.40;99.90
15364;DHT22;7781;49.690;6.472;2022-10-22T07:21:28;11.50;99.90
15364;DHT22;7781;49.690;6.472;2022-10-22T07:23:56;11.60;99.90
15364;DHT22;7781;49.690;6.472;2022-10-22T07:29:33;11.70;99.90
15364;DHT22;7781;49.690;6.472;2022-10-22T07:32:02;11.80;99.90
15364;DHT22;7781;49.690;6.472;2022-10-22T07:34:31;11.90;99.90
15364;DHT22;7781;49.690;6.472;2022-10-22T07:36:59;12.00;99.90
15364;DHT22;7781;49.690;6.472;2022-10-22T07:39:27;12.00;99.90
15364;DHT22;7781;49.690;6.472;2022-10-22T07:41:55;12.10;99.90
15364;DHT22;7781;49.690;6.472;2022-10-22T07:44:24;12.20;99.90
15364;DHT22;7781;49.690;6.472;2022-10-22T07:46:52;12.20;99.90
15364;DHT22;7781;49.690;6.472;2022-10-22T07:49:20;12.30;99.90
15364;DHT22;7781;49.690;6.472;2022-10-22T07:51:49;12.40;99.90
15364;DHT22;7781;49.690;6.472;2022-10-22T07:54:17;12.40;99.90
15364;DHT22;7781;49.690;6.472;2022-10-22T07:56:45;12.40;99.90
15364;DHT22;7781;49.690;6.472;2022-10-22T07:59:13;12.50;99.90
15364;DHT22;7781;49.690;6.472;2022-10-22T08:01:41;12.50;99.90
15364;DHT22;7781;49.690;6.472;2022-10-22T08:04:09;12.50;99.90
15364;DHT22;7781;49.690;6.472;2022-10-22T08:06:38;12.60;99.90
15364;DHT22;7781;49.690;6.472;2022-10-22T08:09:12;12.70;99.90
15364;DHT22;7781;49.690;6.472;2022-10-22T08:11:41;12.70;99.90
15364;DHT22;7781;49.690;6.472;2022-10-22T08:14:09;12.80;99.90
15364;DHT22;7781;49.690;6.472;2022-10-22T08:16:38;13.00;99.90
15364;DHT22;7781;49.690;6.472;2022-10-22T08:19:06;13.10;99.90
15364;DHT22;7781;49.690;6.472;2022-10-22T08:21:34;13.20;99.90
15364;DHT22;7781;49.690;6.472;2022-10-22T08:24:02;13.20;99.90
15364;DHT22;7781;49.690;6.472;2022-10-22T08:26:32;13.30;99.90
15364;DHT22;7781;49.690;6.472;2022-10-22T08:29:00;13.30;99.90
15364;DHT22;7781;49.690;6.472;2022-10-22T08:31:28;13.40;99.90
15364;DHT22;7781;49.690;6.472;2022-10-22T08:33:56;13.40;99.90
15364;DHT22;7781;49.690;6.472;2022-10-22T08:36:24;13.50;99.90
15364;DHT22;7781;49.690;6.472;2022-10-22T08:38:52;13.60;99.90
15364;DHT22;7781;49.690;6.472;2022-10-22T08:41:22;13.70;99.90
15364;DHT22;7781;49.690;6.472;2022-10-22T08:44:14;13.80;99.90
15364;DHT22;7781;49.690;6.472;2022-10-22T08:47:19;13.90;99.90
15364;DHT22;7781;49.690;6.472;2022-10-22T08:49:52;13.90;99.90
15364;DHT22;7781;49.690;6.472;2022-10-22T08:52:22;13.90;99.90
15364;DHT22;7781;49.690;6.472;2022-10-22T08:54:53;14.00;99.90
15364;DHT22;7781;49.690;6.472;2022-10-22T08:57:37;14.10;99.90
15364;DHT22;7781;49.690;6.472;2022-10-22T09:00:13;14.10;99.90
15364;DHT22;7781;49.690;6.472;2022-10-22T09:02:55;14.20;99.90
15364;DHT22;7781;49.690;6.472;2022-10-22T09:05:37;14.30;99.90
15364;DHT22;7781;49.690;6.472;2022-10-22T09:08:09;14.40;99.90
15364;DHT22;7781;49.690;6.472;2022-10-22T09:10:42;14.40;99.90
15364;DHT22;7781;49.690;6.472;2022-10-22T09:13:16;14.50;99.90
15364;DHT22;7781;49.690;6.472;2022-10-22T09:15:48;14.50;99.90
15364;DHT22;7781;49.690;6.472;2022-10-22T09:18:27;14.70;99.90
15364;DHT22;7781;49.690;6.472;2022-10-22T09:21:01;14.80;99.90
15364;DHT22;7781;49.690;6.472;2022-10-22T09:23:35;14.80;99.90
15364;DHT22;7781;49.690;6.472;2022-10-22T09:26:11;14.80;99.90
15364;DHT22;7781;49.690;6.472;2022-10-22T09:28:40;14.90;99.90
15364;DHT22;7781;49.690;6.472;2022-10-22T09:31:12;14.90;99.90
15364;DHT22;7781;49.690;6.472;2022-10-22T09:33:42;14.90;99.90
15364;DHT22;7781;49.690;6.472;2022-10-22T09:36:12;15.10;99.90
15364;DHT22;7781;49.690;6.472;2022-10-22T09:38:45;15.10;99.90
15364;DHT22;7781;49.690;6.472;2022-10-22T09:41:15;15.30;99.90
15364;DHT22;7781;49.690;6.472;2022-10-22T09:43:45;15.30;99.90
15364;DHT22;7781;49.690;6.472;2022-10-22T09:46:18;15.30;99.90
15364;DHT22;7781;49.690;6.472;2022-10-22T09:48:48;15.40;99.90
15364;DHT22;7781;49.690;6.472;2022-10-22T09:51:18;15.40;99.90
15364;DHT22;7781;49.690;6.472;2022-10-22T09:53:54;15.40;99.90
15364;DHT22;7781;49.690;6.472;2022-10-22T09:56:25;15.40;99.90
15364;DHT22;7781;49.690;6.472;2022-10-22T09:58:56;15.50;99.90
15364;DHT22;7781;49.690;6.472;2022-10-22T10:01:27;15.60;99.90
15364;DHT22;7781;49.690;6.472;2022-10-22T10:04:02;15.70;99.90
15364;DHT22;7781;49.690;6.472;2022-10-22T10:06:37;15.80;99.90
15364;DHT22;7781;49.690;6.472;2022-10-22T10:09:13;15.80;99.90
15364;DHT22;7781;49.690;6.472;2022-10-22T10:11:45;15.90;99.90
15364;DHT22;7781;49.690;6.472;2022-10-22T10:14:19;15.90;99.90
15364;DHT22;7781;49.690;6.472;2022-10-22T10:16:56;16.00;99.90
15364;DHT22;7781;49.690;6.472;2022-10-22T10:19:33;16.10;99.90
15364;DHT22;7781;49.690;6.472;2022-10-22T10:22:09;16.20;99.90
15364;DHT22;7781;49.690;6.472;2022-10-22T10:24:51;16.50;99.90
15364;DHT22;7781;49.690;6.472;2022-10-22T10:27:28;16.60;99.90
15364;DHT22;7781;49.690;6.472;2022-10-22T10:30:02;16.80;99.90
15364;DHT22;7781;49.690;6.472;2022-10-22T10:33:02;17.00;99.90
15364;DHT22;7781;49.690;6.472;2022-10-22T10:35:42;17.10;99.90
15364;DHT22;7781;49.690;6.472;2022-10-22T10:38:22;17.10;99.90
15364;DHT22;7781;49.690;6.472;2022-10-22T10:41:02;17.20;99.90
15364;DHT22;7781;49.690;6.472;2022-10-22T10:43:43;17.30;99.90
15364;DHT22;7781;49.690;6.472;2022-10-22T10:46:20;17.40;99.90
15364;DHT22;7781;49.690;6.472;2022-10-22T10:48:55;17.30;99.90
15364;DHT22;7781;49.690;6.472;2022-10-22T10:51:41;17.30;99.90
15364;DHT22;7781;49.690;6.472;2022-10-22T10:54:19;17.40;99.90
15364;DHT22;7781;49.690;6.472;2022-10-22T10:56:52;17.50;99.90
15364;DHT22;7781;49.690;6.472;2022-10-22T10:59:31;17.70;99.90
15364;DHT22;7781;49.690;6.472;2022-10-22T11:02:16;17.60;99.90
15364;DHT22;7781;49.690;6.472;2022-10-22T11:07:53;17.80;99.90
15364;DHT22;7781;49.690;6.472;2022-10-22T11:10:27;17.90;99.90
15364;DHT22;7781;49.690;6.472;2022-10-22T11:13:02;18.00;99.90
15364;DHT22;7781;49.690;6.472;2022-10-22T11:15:34;18.00;99.90
15364;DHT22;7781;49.690;6.472;2022-10-22T11:18:12;18.10;99.90
15364;DHT22;7781;49.690;6.472;2022-10-22T11:20:49;18.30;99.90
15364;DHT22;7781;49.690;6.472;2022-10-22T11:23:24;18.40;99.90
15364;DHT22;7781;49.690;6.472;2022-10-22T11:25:54;18.50;99.90
15364;DHT22;7781;49.690;6.472;2022-10-22T11:28:26;18.40;99.90
15364;DHT22;7781;49.690;6.472;2022-10-22T11:31:00;18.40;99.90
15364;DHT22;7781;49.690;6.472;2022-10-22T11:33:36;18.50;99.90
15364;DHT22;7781;49.690;6.472;2022-10-22T11:36:07;18.40;99.90
15364;DHT22;7781;49.690;6.472;2022-10-22T11:38:36;18.20;99.90
15364;DHT22;7781;49.690;6.472;2022-10-22T11:41:07;18.00;99.90
15364;DHT22;7781;49.690;6.472;2022-10-22T11:43:55;18.00;99.90
15364;DHT22;7781;49.690;6.472;2022-10-22T11:46:33;18.10;99.90
15364;DHT22;7781;49.690;6.472;2022-10-22T11:49:14;18.20;99.90
15364;DHT22;7781;49.690;6.472;2022-10-22T11:51:45;18.30;99.90
15364;DHT22;7781;49.690;6.472;2022-10-22T11:54:37;18.40;99.90
15364;DHT22;7781;49.690;6.472;2022-10-22T11:57:20;18.40;99.90
15364;DHT22;7781;49.690;6.472;2022-10-22T11:59:52;18.50;99.90
15364;DHT22;7781;49.690;6.472;2022-10-22T12:02:43;18.60;99.90
15364;DHT22;7781;49.690;6.472;2022-10-22T12:08:28;18.80;99.90
15364;DHT22;7781;49.690;6.472;2022-10-22T12:11:02;19.00;99.90
15364;DHT22;7781;49.690;6.472;2022-10-22T12:13:33;19.20;99.90
15364;DHT22;7781;49.690;6.472;2022-10-22T12:16:17;19.40;99.90
15364;DHT22;7781;49.690;6.472;2022-10-22T12:19:12;19.50;99.90
15364;DHT22;7781;49.690;6.472;2022-10-22T12:21:43;19.50;99.90
15364;DHT22;7781;49.690;6.472;2022-10-22T12:24:18;19.60;99.90
15364;DHT22;7781;49.690;6.472;2022-10-22T12:26:47;19.80;99.90
15364;DHT22;7781;49.690;6.472;2022-10-22T12:29:20;20.00;99.90
15364;DHT22;7781;49.690;6.472;2022-10-22T12:31:49;20.30;99.90
15364;DHT22;7781;49.690;6.472;2022-10-22T12:34:20;20.60;99.90
15364;DHT22;7781;49.690;6.472;2022-10-22T12:36:50;20.90;72.30
15364;DHT22;7781;49.690;6.472;2022-10-22T12:39:21;21.30;1.00
15364;DHT22;7781;49.690;6.472;2022-10-22T12:41:53;21.60;1.00
15364;DHT22;7781;49.690;6.472;2022-10-22T12:44:21;21.60;99.90
15364;DHT22;7781;49.690;6.472;2022-10-22T12:46:50;21.50;1.00
15364;DHT22;7781;49.690;6.472;2022-10-22T12:49:24;21.60;1.00
15364;DHT22;7781;49.690;6.472;2022-10-22T12:51:54;21.70;1.00
15364;DHT22;7781;49.690;6.472;2022-10-22T12:54:29;21.80;99.90
15364;DHT22;7781;49.690;6.472;2022-10-22T12:56:59;21.60;1.00
15364;DHT22;7781;49.690;6.472;2022-10-22T12:59:29;21.60;1.00
15364;DHT22;7781;49.690;6.472;2022-10-22T13:02:00;21.60;99.90
15364;DHT22;7781;49.690;6.472;2022-10-22T13:04:33;22.10;1.00
15364;DHT22;7781;49.690;6.472;2022-10-22T13:07:19;22.40;99.90
15364;DHT22;7781;49.690;6.472;2022-10-22T13:09:58;22.40;99.90
15364;DHT22;7781;49.690;6.472;2022-10-22T13:12:33;22.40;99.90
15364;DHT22;7781;49.690;6.472;2022-10-22T13:15:17;21.70;99.90
15364;DHT22;7781;49.690;6.472;2022-10-22T13:17:46;21.80;99.90
15364;DHT22;7781;49.690;6.472;2022-10-22T13:20:18;21.30;99.90
15364;DHT22;7781;49.690;6.472;2022-10-22T13:22:55;20.70;1.00
15364;DHT22;7781;49.690;6.472;2022-10-22T13:25:29;20.60;1.00
15364;DHT22;7781;49.690;6.472;2022-10-22T13:27:58;20.40;1.00
15364;DHT22;7781;49.690;6.472;2022-10-22T13:30:30;20.30;1.00
15364;DHT22;7781;49.690;6.472;2022-10-22T13:32:59;20.10;1.00
15364;DHT22;7781;49.690;6.472;2022-10-22T13:35:30;20.10;1.00
15364;DHT22;7781;49.690;6.472;2022-10-22T13:37:59;19.90;1.00
15364;DHT22;7781;49.690;6.472;2022-10-22T13:40:28;20.00;1.00
15364;DHT22;7781;49.690;6.472;2022-10-22T13:42:57;20.00;1.00
15364;DHT22;7781;49.690;6.472;2022-10-22T13:45:25;19.90;1.00
15364;DHT22;7781;49.690;6.472;2022-10-22T13:47:53;19.90;1.00
15364;DHT22;7781;49.690;6.472;2022-10-22T13:50:22;19.80;1.00
15364;DHT22;7781;49.690;6.472;2022-10-22T13:52:53;19.70;11.10
15364;DHT22;7781;49.690;6.472;2022-10-22T13:55:23;19.50;39.40
15364;DHT22;7781;49.690;6.472;2022-10-22T13:57:54;19.60;74.40
15364;DHT22;7781;49.690;6.472;2022-10-22T14:00:23;19.60;28.80
15364;DHT22;7781;49.690;6.472;2022-10-22T14:02:54;19.50;1.00
15364;DHT22;7781;49.690;6.472;2022-10-22T14:05:23;19.50;6.90
15364;DHT22;7781;49.690;6.472;2022-10-22T14:07:51;19.30;1.00
15364;DHT22;7781;49.690;6.472;2022-10-22T14:10:22;19.20;1.00
15364;DHT22;7781;49.690;6.472;2022-10-22T14:12:52;19.20;1.90
15364;DHT22;7781;49.690;6.472;2022-10-22T14:15:22;19.10;1.00
15364;DHT22;7781;49.690;6.472;2022-10-22T14:17:53;19.20;37.30
15364;DHT22;7781;49.690;6.472;2022-10-22T14:20:25;19.30;53.30
15364;DHT22;7781;49.690;6.472;2022-10-22T14:22:54;19.40;87.00
15364;DHT22;7781;49.690;6.472;2022-10-22T14:25:24;19.30;9.60
15364;DHT22;7781;49.690;6.472;2022-10-22T14:27:53;19.10;1.00
15364;DHT22;7781;49.690;6.472;2022-10-22T14:30:23;19.10;19.20
15364;DHT22;7781;49.690;6.472;2022-10-22T14:32:52;19.10;1.00
15364;DHT22;7781;49.690;6.472;2022-10-22T14:35:21;19.10;1.00
15364;DHT22;7781;49.690;6.472;2022-10-22T14:37:49;19.10;1.00
15364;DHT22;7781;49.690;6.472;2022-10-22T14:40:18;19.10;1.00
15364;DHT22;7781;49.690;6.472;2022-10-22T14:42:47;19.10;1.00
15364;DHT22;7781;49.690;6.472;2022-10-22T14:45:20;19.10;1.00
15364;DHT22;7781;49.690;6.472;2022-10-22T14:47:49;19.10;1.00
15364;DHT22;7781;49.690;6.472;2022-10-22T14:50:18;19.00;6.00
15364;DHT22;7781;49.690;6.472;2022-10-22T14:52:46;18.90;21.70
15364;DHT22;7781;49.690;6.472;2022-10-22T14:55:15;18.90;77.40
15364;DHT22;7781;49.690;6.472;2022-10-22T14:57:44;18.80;99.90
15364;DHT22;7781;49.690;6.472;2022-10-22T15:00:14;18.70;99.90
15364;DHT22;7781;49.690;6.472;2022-10-22T15:02:44;18.70;99.90
15364;DHT22;7781;49.690;6.472;2022-10-22T15:05:13;18.60;99.90
15364;DHT22;7781;49.690;6.472;2022-10-22T15:07:41;18.50;99.90
15364;DHT22;7781;49.690;6.472;2022-10-22T15:10:10;18.40;99.90
15364;DHT22;7781;49.690;6.472;2022-10-22T15:12:38;18.40;99.90
15364;DHT22;7781;49.690;6.472;2022-10-22T15:15:07;18.30;99.90
15364;DHT22;7781;49.690;6.472;2022-10-22T15:17:35;18.20;99.90
15364;DHT22;7781;49.690;6.472;2022-10-22T15:20:05;18.10;99.90
15364;DHT22;7781;49.690;6.472;2022-10-22T15:22:34;18.10;99.90
15364;DHT22;7781;49.690;6.472;2022-10-22T15:25:05;18.10;99.90
15364;DHT22;7781;49.690;6.472;2022-10-22T15:27:34;18.00;99.90
15364;DHT22;7781;49.690;6.472;2022-10-22T15:30:02;18.00;99.90
15364;DHT22;7781;49.690;6.472;2022-10-22T15:32:31;17.90;99.90
15364;DHT22;7781;49.690;6.472;2022-10-22T15:35:00;17.80;99.90
15364;DHT22;7781;49.690;6.472;2022-10-22T15:37:29;17.90;99.90
15364;DHT22;7781;49.690;6.472;2022-10-22T15:39:57;17.90;99.90
15364;DHT22;7781;49.690;6.472;2022-10-22T15:42:26;17.80;99.90
15364;DHT22;7781;49.690;6.472;2022-10-22T15:44:57;17.70;99.90
15364;DHT22;7781;49.690;6.472;2022-10-22T15:47:25;17.60;99.90
15364;DHT22;7781;49.690;6.472;2022-10-22T15:49:55;17.60;99.90
15364;DHT22;7781;49.690;6.472;2022-10-22T15:52:23;17.40;99.90
15364;DHT22;7781;49.690;6.472;2022-10-22T15:54:53;17.40;99.90
15364;DHT22;7781;49.690;6.472;2022-10-22T15:57:21;17.20;99.90
15364;DHT22;7781;49.690;6.472;2022-10-22T15:59:49;17.00;99.90
15364;DHT22;7781;49.690;6.472;2022-10-22T16:02:17;16.90;99.90
15364;DHT22;7781;49.690;6.472;2022-10-22T16:04:45;16.80;99.90
15364;DHT22;7781;49.690;6.472;2022-10-22T16:07:13;16.70;99.90
15364;DHT22;7781;49.690;6.472;2022-10-22T16:09:44;16.60;99.90
15364;DHT22;7781;49.690;6.472;2022-10-22T16:12:14;16.50;99.90
15364;DHT22;7781;49.690;6.472;2022-10-22T16:14:43;16.30;99.90
15364;DHT22;7781;49.690;6.472;2022-10-22T16:17:11;16.10;99.90
15364;DHT22;7781;49.690;6.472;2022-10-22T16:19:39;15.90;99.90
15364;DHT22;7781;49.690;6.472;2022-10-22T16:22:08;15.70;99.90